createdAt,value
2023-02-06T00:00:53.165Z,18.50
2023-02-06T00:03:20.482Z,19.63
2023-02-06T00:05:58.409Z,21.88
2023-02-06T00:08:26.423Z,19.63
2023-02-06T00:10:53.295Z,25.08
2023-02-06T00:13:20.244Z,25.45
2023-02-06T00:15:47.098Z,23.85
2023-02-06T00:18:13.806Z,24.45
2023-02-06T00:20:40.414Z,24.58
2023-02-06T00:23:07.095Z,25.02
2023-02-06T00:25:33.998Z,21.38
2023-02-06T00:28:00.741Z,21.58
2023-02-06T00:30:27.455Z,22.52
2023-02-06T00:32:54.117Z,22.75
2023-02-06T00:35:20.902Z,21.45
2023-02-06T00:37:47.576Z,20.42
2023-02-06T00:40:14.196Z,22.08
2023-02-06T00:42:40.856Z,22.80
2023-02-06T00:45:08.337Z,22.45
2023-02-06T00:47:35.619Z,23.58
2023-02-06T00:50:03.084Z,24.60
2023-02-06T00:52:29.650Z,23.10
2023-02-06T00:54:56.853Z,21.75
2023-02-06T00:57:23.537Z,22.23
2023-02-06T00:59:50.228Z,20.25
2023-02-06T01:02:16.828Z,21.75
2023-02-06T01:04:43.426Z,21.30
2023-02-06T01:07:10.014Z,22.00
2023-02-06T01:09:36.735Z,22.02
2023-02-06T01:12:03.474Z,20.75
2023-02-06T01:14:30.167Z,20.15
2023-02-06T01:16:56.868Z,20.25
2023-02-06T01:19:23.501Z,19.45
2023-02-06T01:21:50.122Z,20.10
2023-02-06T01:24:16.758Z,20.38
2023-02-06T01:26:43.581Z,20.42
2023-02-06T01:29:10.241Z,21.25
2023-02-06T01:31:36.908Z,18.50
2023-02-06T01:34:03.737Z,21.92
2023-02-06T01:36:30.366Z,20.58
2023-02-06T01:38:57.042Z,18.38
2023-02-06T01:41:24.120Z,18.23
2023-02-06T01:44:12.583Z,17.80
2023-02-06T01:46:41.428Z,18.07
2023-02-06T01:49:13.766Z,21.40
2023-02-06T01:51:40.970Z,19.25
2023-02-06T01:54:09.299Z,20.65
2023-02-06T01:56:47.116Z,17.83
2023-02-06T01:59:14.069Z,19.73
2023-02-06T02:01:41.847Z,19.70
2023-02-06T02:04:14.911Z,20.08
2023-02-06T02:06:41.933Z,18.48
2023-02-06T02:09:09.310Z,18.48
2023-02-06T02:11:38.383Z,19.25
2023-02-06T02:14:08.127Z,18.33
2023-02-06T02:16:37.515Z,18.02
2023-02-06T02:22:10.422Z,19.13
2023-02-06T02:25:07.782Z,21.30
2023-02-06T02:27:44.513Z,21.13
2023-02-06T02:30:29.818Z,20.45
2023-02-06T02:33:02.448Z,22.15
2023-02-06T02:35:32.295Z,19.65
2023-02-06T02:38:13.247Z,21.98
2023-02-06T02:41:18.366Z,19.52
2023-02-06T02:43:58.245Z,19.00
2023-02-06T02:46:42.839Z,19.65
2023-02-06T02:49:13.958Z,19.48
2023-02-06T02:51:42.088Z,20.50
2023-02-06T02:54:09.528Z,19.60
2023-02-06T02:56:36.576Z,19.38
2023-02-06T02:59:12.087Z,19.83
2023-02-06T03:01:48.560Z,20.55
2023-02-06T03:04:27.599Z,19.50
2023-02-06T03:07:26.518Z,20.35
2023-02-06T03:10:04.948Z,19.50
2023-02-06T03:12:46.746Z,19.47
2023-02-06T03:15:26.651Z,18.52
2023-02-06T03:18:16.597Z,18.58
2023-02-06T03:20:48.055Z,23.30
2023-02-06T03:23:25.628Z,19.92
2023-02-06T03:25:56.412Z,24.20
2023-02-06T03:28:31.741Z,21.25
2023-02-06T03:31:00.986Z,23.17
2023-02-06T03:33:34.262Z,20.42
2023-02-06T03:36:01.246Z,22.40
2023-02-06T03:38:28.306Z,22.13
2023-02-06T03:40:58.024Z,19.85
2023-02-06T03:43:27.356Z,20.80
2023-02-06T03:48:37.956Z,20.38
2023-02-06T03:51:11.676Z,22.02
2023-02-06T03:53:39.572Z,23.55
2023-02-06T03:56:15.817Z,22.80
2023-02-06T03:58:42.449Z,21.98
2023-02-06T04:01:10.999Z,20.02
2023-02-06T04:03:37.659Z,18.83
2023-02-06T04:06:04.314Z,19.80
2023-02-06T04:08:30.943Z,21.88
2023-02-06T04:10:57.616Z,23.88
2023-02-06T04:13:24.265Z,22.88
2023-02-06T04:15:50.948Z,22.77
2023-02-06T04:18:17.607Z,22.50
2023-02-06T04:20:44.221Z,21.17
2023-02-06T04:23:10.804Z,23.17
2023-02-06T04:25:37.663Z,24.98
2023-02-06T04:28:04.743Z,22.17
2023-02-06T04:30:31.378Z,21.75
2023-02-06T04:32:58.003Z,22.27
2023-02-06T04:35:24.647Z,21.83
2023-02-06T04:37:51.402Z,20.40
2023-02-06T04:40:18.259Z,20.38
2023-02-06T04:42:44.968Z,23.55
2023-02-06T04:45:11.680Z,21.58
2023-02-06T04:47:38.722Z,21.67
2023-02-06T04:50:06.059Z,19.73
2023-02-06T04:52:32.726Z,20.85
2023-02-06T04:54:59.304Z,21.50
2023-02-06T04:57:26.869Z,21.83
2023-02-06T04:59:53.579Z,21.85
2023-02-06T05:02:20.196Z,21.13
2023-02-06T05:04:46.799Z,22.65
2023-02-06T05:07:13.386Z,22.02
2023-02-06T05:09:40.113Z,21.52
2023-02-06T05:12:06.800Z,20.50
2023-02-06T05:14:33.407Z,22.02
2023-02-06T05:17:00.016Z,22.40
2023-02-06T05:19:26.700Z,21.65
2023-02-06T05:21:53.336Z,21.27
2023-02-06T05:24:19.983Z,22.38
2023-02-06T05:26:46.778Z,22.48
2023-02-06T05:29:13.472Z,22.70
2023-02-06T05:31:40.444Z,22.13
2023-02-06T05:34:07.139Z,21.40
2023-02-06T05:36:33.791Z,21.67
2023-02-06T05:39:00.388Z,21.13
2023-02-06T05:41:27.087Z,19.38
2023-02-06T05:43:53.725Z,19.00
2023-02-06T05:46:20.366Z,20.90
2023-02-06T05:48:47.054Z,21.63
2023-02-06T05:51:13.715Z,22.35
2023-02-06T05:53:40.371Z,23.20
2023-02-06T05:56:07.253Z,20.40
2023-02-06T05:58:34.220Z,19.27
2023-02-06T06:01:00.885Z,16.98
2023-02-06T06:03:27.616Z,20.02
2023-02-06T06:05:54.393Z,16.38
2023-02-06T06:08:21.707Z,19.02
2023-02-06T06:10:51.576Z,18.55
2023-02-06T06:13:19.006Z,20.73
2023-02-06T06:15:45.678Z,21.67
2023-02-06T06:18:12.364Z,17.05
2023-02-06T06:20:38.959Z,18.45
2023-02-06T06:23:05.614Z,18.58
2023-02-06T06:25:32.248Z,17.25
2023-02-06T06:27:58.874Z,17.02
2023-02-06T06:30:25.492Z,16.67
2023-02-06T06:32:52.599Z,17.52
2023-02-06T06:35:19.703Z,17.10
2023-02-06T06:37:46.314Z,18.17
2023-02-06T06:40:12.983Z,19.42
2023-02-06T06:42:39.776Z,18.30
2023-02-06T06:45:07.562Z,13.93
2023-02-06T06:47:34.219Z,16.92
2023-02-06T06:50:00.832Z,17.40
2023-02-06T06:52:27.451Z,17.02
2023-02-06T06:54:54.521Z,17.08
2023-02-06T06:57:22.523Z,19.02
2023-02-06T06:59:49.586Z,15.13
2023-02-06T07:02:16.903Z,17.63
2023-02-06T07:04:44.015Z,20.17
2023-02-06T07:07:10.714Z,18.60
2023-02-06T07:09:37.435Z,18.75
2023-02-06T07:12:04.429Z,16.45
2023-02-06T07:14:31.164Z,17.33
2023-02-06T07:16:59.269Z,14.38
2023-02-06T07:19:25.980Z,15.82
2023-02-06T07:21:52.612Z,15.50
2023-02-06T07:24:19.290Z,16.27
2023-02-06T07:26:45.943Z,16.83
2023-02-06T07:29:12.607Z,16.02
2023-02-06T07:31:39.238Z,15.57
2023-02-06T07:34:05.952Z,19.13
2023-02-06T07:36:32.655Z,17.67
2023-02-06T07:38:59.324Z,16.40
2023-02-06T07:41:25.971Z,17.10
2023-02-06T07:43:54.273Z,16.27
2023-02-06T07:46:21.167Z,14.02
2023-02-06T07:48:47.953Z,14.10
2023-02-06T07:51:14.571Z,12.55
2023-02-06T07:53:41.245Z,14.15
2023-02-06T07:56:16.870Z,13.68
2023-02-06T07:58:43.648Z,13.55
2023-02-06T08:01:10.823Z,15.55
2023-02-06T08:03:37.696Z,14.10
2023-02-06T08:06:09.376Z,13.07
2023-02-06T08:08:36.076Z,12.13
2023-02-06T08:11:07.164Z,11.10
2023-02-06T08:13:35.113Z,10.50
2023-02-06T08:16:11.502Z,11.80
2023-02-06T08:18:38.901Z,12.20
2023-02-06T08:21:07.742Z,11.20
2023-02-06T08:23:34.392Z,10.98
2023-02-06T08:26:15.964Z,9.73
2023-02-06T08:28:44.536Z,9.05
2023-02-06T08:31:38.608Z,8.10
2023-02-06T08:34:06.931Z,8.52
2023-02-06T08:36:34.051Z,8.30
2023-02-06T08:39:02.738Z,9.35
2023-02-06T08:41:32.795Z,9.13
2023-02-06T08:44:02.229Z,9.48
2023-02-06T08:48:58.571Z,7.93
2023-02-06T08:51:28.470Z,6.53
2023-02-06T08:53:59.879Z,7.05
2023-02-06T08:56:27.805Z,6.82
2023-02-06T08:58:54.972Z,6.95
2023-02-06T09:01:21.780Z,7.28
2023-02-06T09:03:48.849Z,6.55
2023-02-06T09:06:16.686Z,5.85
2023-02-06T09:08:44.657Z,5.97
2023-02-06T09:11:17.032Z,6.13
2023-02-06T09:13:49.248Z,6.05
2023-02-06T09:16:19.308Z,6.68
2023-02-06T09:18:46.244Z,5.95
2023-02-06T09:21:18.427Z,5.45
2023-02-06T09:23:50.209Z,5.70
2023-02-06T09:26:20.452Z,5.38
2023-02-06T09:28:47.506Z,5.20
2023-02-06T09:31:14.375Z,5.15
2023-02-06T09:33:41.058Z,4.95
2023-02-06T09:36:13.328Z,5.53
2023-02-06T09:38:43.218Z,5.38
2023-02-06T09:41:21.318Z,5.05
2023-02-06T09:43:54.640Z,5.28
2023-02-06T09:46:28.233Z,6.13
2023-02-06T09:48:57.390Z,6.03
2023-02-06T09:51:40.044Z,6.13
2023-02-06T09:54:23.220Z,5.85
2023-02-06T09:56:50.008Z,5.50
2023-02-06T09:59:28.696Z,5.03
2023-02-06T10:02:13.664Z,5.60
2023-02-06T10:04:58.587Z,5.70
2023-02-06T10:07:31.043Z,5.75
2023-02-06T10:10:47.531Z,5.07
2023-02-06T10:13:32.709Z,4.72
2023-02-06T10:16:32.513Z,5.43
2023-02-06T10:19:09.615Z,5.63
2023-02-06T10:21:42.625Z,5.65
2023-02-06T10:24:36.746Z,5.72
2023-02-06T10:27:09.052Z,5.28
2023-02-06T10:29:36.481Z,5.88
2023-02-06T10:32:40.360Z,5.60
2023-02-06T10:35:31.778Z,4.47
2023-02-06T10:38:16.528Z,4.50
2023-02-06T10:41:04.369Z,5.15
2023-02-06T10:43:44.025Z,4.88
2023-02-06T10:46:29.218Z,4.80
2023-02-06T10:49:05.475Z,5.18
2023-02-06T10:51:45.604Z,4.63
2023-02-06T10:54:18.434Z,4.47
2023-02-06T10:56:47.862Z,4.72
2023-02-06T11:01:44.128Z,4.88
2023-02-06T11:04:15.512Z,5.90
2023-02-06T11:06:43.223Z,6.10
2023-02-06T11:09:10.704Z,4.88
2023-02-06T11:11:40.486Z,4.82
2023-02-06T11:14:25.241Z,4.60
2023-02-06T11:16:52.732Z,4.72
2023-02-06T11:19:26.226Z,4.80
2023-02-06T11:22:17.271Z,5.00
2023-02-06T11:25:04.547Z,4.68
2023-02-06T11:27:33.672Z,4.10
2023-02-06T11:30:07.794Z,4.75
2023-02-06T11:32:36.761Z,5.03
2023-02-06T11:35:15.201Z,5.30
2023-02-06T11:37:42.146Z,4.67
2023-02-06T11:40:21.068Z,4.50
2023-02-06T11:42:49.872Z,4.70
2023-02-06T11:45:28.496Z,4.20
2023-02-06T11:47:55.294Z,4.63
2023-02-06T11:50:28.755Z,4.50
2023-02-06T11:53:09.291Z,4.78
2023-02-06T11:55:38.406Z,4.15
2023-02-06T12:00:41.765Z,5.32
2023-02-06T12:03:26.833Z,4.63
2023-02-06T12:05:55.499Z,5.05
2023-02-06T12:08:26.632Z,4.50
2023-02-06T12:11:00.186Z,4.43
2023-02-06T12:13:33.820Z,5.38
2023-02-06T12:16:04.095Z,5.05
2023-02-06T12:18:37.070Z,4.95
2023-02-06T12:21:08.528Z,5.10
2023-02-06T12:23:40.878Z,5.20
2023-02-06T12:26:12.077Z,5.45
2023-02-06T12:28:50.745Z,5.28
2023-02-06T12:31:26.040Z,5.90
2023-02-06T12:34:00.737Z,5.80
2023-02-06T12:37:10.430Z,5.45
2023-02-06T12:39:37.422Z,5.22
2023-02-06T12:42:12.563Z,5.80
2023-02-06T12:44:57.484Z,5.97
2023-02-06T12:47:27.458Z,8.57
2023-02-06T12:50:06.170Z,7.55
2023-02-06T12:52:48.258Z,6.13
2023-02-06T12:55:21.237Z,6.25
2023-02-06T12:57:47.988Z,6.60
2023-02-06T13:00:32.800Z,6.30
2023-02-06T13:03:26.084Z,6.22
2023-02-06T13:06:34.205Z,5.88
2023-02-06T13:09:02.270Z,6.60
2023-02-06T13:11:35.883Z,5.97
2023-02-06T13:14:19.519Z,6.15
2023-02-06T13:16:55.306Z,5.82
2023-02-06T13:19:39.172Z,5.57
2023-02-06T13:22:13.093Z,6.68
2023-02-06T13:24:50.251Z,7.43
2023-02-06T13:27:40.218Z,6.18
2023-02-06T13:30:31.567Z,7.28
2023-02-06T13:33:17.550Z,7.28
2023-02-06T13:35:56.386Z,9.10
2023-02-06T13:38:22.938Z,9.80
2023-02-06T13:41:13.123Z,10.23
2023-02-06T13:44:05.229Z,9.52
2023-02-06T13:46:37.918Z,10.82
2023-02-06T13:49:25.972Z,9.68
2023-02-06T13:52:18.770Z,7.47
2023-02-06T13:54:55.374Z,7.30
2023-02-06T13:57:43.709Z,6.90
2023-02-06T14:00:25.799Z,5.70
2023-02-06T14:03:06.130Z,5.18
2023-02-06T14:05:51.641Z,5.72
2023-02-06T14:08:38.337Z,5.07
2023-02-06T14:11:23.392Z,5.90
2023-02-06T14:14:14.650Z,5.10
2023-02-06T14:16:52.579Z,4.13
2023-02-06T14:19:28.886Z,4.00
2023-02-06T14:22:13.946Z,4.13
2023-02-06T14:25:17.585Z,3.42
2023-02-06T14:27:56.074Z,3.20
2023-02-06T14:30:50.468Z,3.53
2023-02-06T14:33:44.735Z,3.67
2023-02-06T14:36:11.274Z,3.50
2023-02-06T14:39:15.088Z,3.50
2023-02-06T14:41:42.254Z,3.70
2023-02-06T14:44:13.190Z,3.95
2023-02-06T14:46:42.136Z,3.60
2023-02-06T14:49:17.408Z,3.45
2023-02-06T14:51:49.669Z,3.72
2023-02-06T14:54:34.357Z,3.90
2023-02-06T14:57:05.600Z,3.78
2023-02-06T14:59:32.988Z,4.30
2023-02-06T15:02:11.384Z,4.30
2023-02-06T15:04:46.294Z,4.70
2023-02-06T15:07:24.130Z,3.75
2023-02-06T15:10:01.199Z,4.65
2023-02-06T15:12:29.222Z,5.30
2023-02-06T15:15:02.805Z,5.13
2023-02-06T15:17:31.180Z,5.20
2023-02-06T15:20:23.229Z,5.70
2023-02-06T15:22:51.093Z,6.05
2023-02-06T15:25:45.200Z,6.20
2023-02-06T15:28:18.982Z,5.30
2023-02-06T15:30:46.657Z,5.35
2023-02-06T15:33:24.127Z,4.68
2023-02-06T15:35:53.217Z,5.25
2023-02-06T15:38:22.009Z,5.05
2023-02-06T15:40:56.040Z,5.72
2023-02-06T15:43:25.470Z,4.60
2023-02-06T15:48:51.391Z,4.22
2023-02-06T15:51:29.594Z,4.30
2023-02-06T15:54:19.545Z,4.22
2023-02-06T15:57:05.825Z,4.95
2023-02-06T15:59:39.854Z,4.18
2023-02-06T16:02:08.053Z,5.10
2023-02-06T16:04:38.487Z,4.78
2023-02-06T16:07:23.659Z,4.53
2023-02-06T16:09:59.764Z,4.53
2023-02-06T16:12:26.495Z,4.00
2023-02-06T16:15:00.907Z,4.00
2023-02-06T16:17:33.993Z,4.60
2023-02-06T16:20:04.580Z,5.00
2023-02-06T16:22:38.325Z,4.85
2023-02-06T16:25:13.845Z,5.82
2023-02-06T16:27:45.853Z,4.45
2023-02-06T16:30:35.441Z,4.10
2023-02-06T16:33:26.969Z,4.43
2023-02-06T16:35:53.577Z,3.90
2023-02-06T16:38:20.207Z,4.28
2023-02-06T16:40:49.660Z,3.20
2023-02-06T16:43:16.311Z,3.50
2023-02-06T16:45:43.001Z,3.75
2023-02-06T16:48:14.319Z,4.00
2023-02-06T16:50:42.034Z,3.80
2023-02-06T16:53:20.253Z,3.50
2023-02-06T16:55:47.436Z,3.40
2023-02-06T16:58:19.178Z,3.88
2023-02-06T17:00:46.815Z,3.78
2023-02-06T17:03:16.309Z,3.40
2023-02-06T17:05:47.760Z,3.85
2023-02-06T17:08:20.580Z,3.63
2023-02-06T17:10:48.103Z,3.00
2023-02-06T17:13:17.184Z,2.90
2023-02-06T17:15:44.236Z,3.22
2023-02-06T17:18:14.029Z,3.65
2023-02-06T17:20:42.765Z,3.45
2023-02-06T17:23:12.761Z,3.58
2023-02-06T17:25:40.723Z,4.05
2023-02-06T17:28:09.264Z,4.03
2023-02-06T17:30:38.029Z,3.63
2023-02-06T17:33:06.354Z,3.40
2023-02-06T17:35:33.878Z,3.20
2023-02-06T17:38:00.505Z,4.00
2023-02-06T17:40:30.374Z,4.40
2023-02-06T17:42:59.016Z,3.83
2023-02-06T17:45:26.388Z,4.50
2023-02-06T17:47:53.482Z,4.00
2023-02-06T17:50:22.884Z,4.15
2023-02-06T17:52:52.689Z,4.00
2023-02-06T17:55:19.514Z,4.10
2023-02-06T17:57:46.085Z,3.90
2023-02-06T18:00:15.827Z,4.10
2023-02-06T18:02:42.855Z,3.60
2023-02-06T18:05:10.224Z,4.00
2023-02-06T18:07:40.287Z,3.72
2023-02-06T18:10:07.910Z,3.72
2023-02-06T18:12:34.719Z,3.58
2023-02-06T18:15:01.551Z,3.50
2023-02-06T18:17:28.152Z,3.28
2023-02-06T18:19:54.828Z,3.65
2023-02-06T18:22:22.248Z,3.83
2023-02-06T18:24:50.163Z,3.60
2023-02-06T18:27:17.942Z,3.88
2023-02-06T18:29:50.547Z,3.83
2023-02-06T18:32:18.570Z,3.90
2023-02-06T18:34:46.042Z,3.60
2023-02-06T18:37:12.763Z,3.90
2023-02-06T18:39:39.721Z,3.67
2023-02-06T18:42:25.237Z,3.30
2023-02-06T18:44:51.933Z,3.28
2023-02-06T18:47:19.783Z,3.60
2023-02-06T18:49:46.891Z,3.67
2023-02-06T18:52:14.422Z,3.28
2023-02-06T18:54:41.130Z,3.58
2023-02-06T18:57:08.367Z,3.85
2023-02-06T18:59:35.240Z,3.97
2023-02-06T19:02:02.921Z,3.60
2023-02-06T19:04:29.848Z,3.40
2023-02-06T19:06:56.542Z,3.70
2023-02-06T19:09:23.201Z,3.30
2023-02-06T19:11:49.798Z,2.40
2023-02-06T19:14:18.087Z,3.03
2023-02-06T19:16:47.472Z,3.15
2023-02-06T19:21:43.378Z,3.33
2023-02-06T19:24:15.183Z,3.53
2023-02-06T19:26:42.248Z,3.45
2023-02-06T19:29:09.677Z,3.00
2023-02-06T19:31:39.214Z,3.05
2023-02-06T19:34:06.662Z,3.13
2023-02-06T19:36:33.433Z,3.10
2023-02-06T19:39:03.037Z,2.95
2023-02-06T19:41:32.753Z,3.25
2023-02-06T19:44:04.743Z,3.00
2023-02-06T19:46:31.839Z,3.33
2023-02-06T19:48:58.622Z,3.22
2023-02-06T19:51:28.762Z,3.63
2023-02-06T19:53:56.970Z,3.60
2023-02-06T19:56:26.960Z,3.80
2023-02-06T19:59:04.865Z,4.05
2023-02-06T20:01:32.536Z,3.60
2023-02-06T20:04:00.683Z,4.35
2023-02-06T20:06:29.476Z,4.22
2023-02-06T20:08:57.228Z,3.95
2023-02-06T20:11:23.987Z,4.22
2023-02-06T20:13:55.606Z,4.30
2023-02-06T20:16:25.732Z,4.30
2023-02-06T20:18:53.876Z,4.60
2023-02-06T20:21:23.672Z,5.70
2023-02-06T20:23:50.813Z,5.03
2023-02-06T20:26:19.746Z,5.70
2023-02-06T20:28:47.325Z,5.28
2023-02-06T20:31:16.225Z,5.40
2023-02-06T20:33:43.487Z,5.90
2023-02-06T20:36:14.765Z,6.32
2023-02-06T20:38:42.203Z,6.00
2023-02-06T20:41:10.079Z,6.55
2023-02-06T20:43:37.226Z,6.38
2023-02-06T20:46:06.516Z,6.65
2023-02-06T20:48:36.377Z,7.07
2023-02-06T20:51:05.919Z,9.32
2023-02-06T20:53:32.637Z,8.60
2023-02-06T20:55:59.384Z,9.48
2023-02-06T20:58:26.124Z,9.88
2023-02-06T21:00:53.718Z,11.93
2023-02-06T21:03:20.638Z,14.60
2023-02-06T21:05:57.685Z,15.50
2023-02-06T21:08:25.617Z,15.77
2023-02-06T21:10:53.200Z,17.20
2023-02-06T21:13:20.015Z,19.42
2023-02-06T21:15:52.606Z,18.63
2023-02-06T21:18:20.632Z,18.52
2023-02-06T21:20:47.412Z,17.90
2023-02-06T21:23:14.295Z,17.70
2023-02-06T21:25:41.754Z,18.15
2023-02-06T21:28:09.602Z,16.85
2023-02-06T21:30:36.774Z,16.65
2023-02-06T21:33:03.699Z,16.33
2023-02-06T21:35:32.793Z,14.43
2023-02-06T21:37:59.898Z,14.60
2023-02-06T21:40:26.545Z,16.52
2023-02-06T21:42:53.158Z,15.20
2023-02-06T21:45:19.898Z,14.55
2023-02-06T21:47:48.341Z,15.35
2023-02-06T21:50:15.137Z,15.63
2023-02-06T21:52:42.389Z,15.00
2023-02-06T21:55:09.114Z,15.25
2023-02-06T21:57:35.764Z,15.23
2023-02-06T22:00:02.406Z,14.48
2023-02-06T22:02:29.119Z,15.57
2023-02-06T22:04:55.772Z,15.48
2023-02-06T22:07:22.418Z,14.63
2023-02-06T22:09:49.092Z,15.10
2023-02-06T22:12:15.696Z,14.93
2023-02-06T22:14:42.306Z,16.00
2023-02-06T22:17:09.001Z,15.88
2023-02-06T22:19:37.723Z,16.48
2023-02-06T22:22:04.450Z,18.45
2023-02-06T22:24:31.196Z,19.13
2023-02-06T22:26:57.804Z,18.17
2023-02-06T22:29:24.604Z,18.23
2023-02-06T22:31:51.347Z,18.05
2023-02-06T22:34:20.998Z,17.20
2023-02-06T22:36:50.604Z,16.52
2023-02-06T22:39:17.832Z,15.95
2023-02-06T22:41:45.856Z,17.20
2023-02-06T22:44:16.717Z,17.02
2023-02-06T22:46:50.108Z,17.23
2023-02-06T22:49:17.492Z,16.98
2023-02-06T22:51:44.754Z,14.65
2023-02-06T22:54:12.672Z,14.82
2023-02-06T22:56:41.170Z,14.23
2023-02-06T22:59:37.206Z,14.97
2023-02-06T23:02:04.354Z,14.85
2023-02-06T23:04:36.196Z,14.48
2023-02-06T23:07:02.963Z,15.70
2023-02-06T23:09:35.282Z,17.08
2023-02-06T23:12:03.044Z,16.23
2023-02-06T23:14:32.093Z,16.55
2023-02-06T23:17:02.412Z,16.35
2023-02-06T23:19:29.568Z,16.17
2023-02-06T23:21:56.287Z,15.65
2023-02-06T23:24:23.042Z,16.10
2023-02-06T23:26:51.009Z,16.05
2023-02-06T23:29:21.540Z,16.33
2023-02-06T23:31:49.132Z,16.48
2023-02-06T23:34:17.635Z,16.63
2023-02-06T23:36:45.154Z,16.90
2023-02-06T23:39:12.053Z,16.58
2023-02-06T23:41:38.883Z,16.50
2023-02-06T23:44:08.119Z,17.17
2023-02-06T23:46:36.735Z,16.80
2023-02-06T23:49:04.331Z,16.42
2023-02-06T23:51:31.989Z,17.65
2023-02-06T23:53:59.287Z,17.40
2023-02-06T23:56:28.545Z,17.17
2023-02-06T23:58:57.333Z,17.23
